Time;durP1;ratioP1;P1;durP2;ratioP2;P2;SDS_P1;SDS_P2;PMS_P1;PMS_P2;Temp;Humidity;BMP_temperature;BMP_pressure;BME280_temperature;BME280_humidity;BME280_pressure;Samples;Min_cycle;Max_cycle;Signal;HPM_P1;HPM_P2
2023/04/16 00:00:28;;;;;;;50.30;25.10;;;;;;;;;;107621;1250;22693;-78
2023/04/16 00:03:15;;;;;;;50.50;24.70;;;;;;;;;;107734;1248;22534;-78
2023/04/16 00:05:41;;;;;;;55.00;27.60;;;;;;;;;;107774;1251;25493;-78
2023/04/16 00:08:07;;;;;;;58.70;26.00;;;;;;;;;;107734;1253;23032;-78
2023/04/16 00:10:34;;;;;;;50.00;25.80;;;;;;;;;;107750;1251;22566;-78
2023/04/16 00:13:00;;;;;;;43.80;23.50;;;;;;;;;;107777;1250;22578;-79
2023/04/16 00:15:26;;;;;;;52.90;24.80;;;;;;;;;;107714;1250;22530;-78
2023/04/16 00:17:53;;;;;;;49.50;24.60;;;;;;;;;;107737;1251;25507;-81
2023/04/16 00:20:19;;;;;;;58.40;30.10;;;;;;;;;;107963;1252;22514;-81
2023/04/16 00:22:46;;;;;;;59.10;31.20;;;;;;;;;;107765;1252;22518;-79
2023/04/16 00:25:12;;;;;;;64.30;38.00;;;;;;;;;;107719;1252;22536;-79
2023/04/16 00:27:38;;;;;;;53.60;30.70;;;;;;;;;;107785;1253;25223;-80
2023/04/16 00:30:05;;;;;;;60.50;31.10;;;;;;;;;;107722;1251;24244;-79
2023/04/16 00:32:32;;;;;;;58.40;30.60;;;;;;;;;;107730;1252;22647;-79
2023/04/16 00:34:58;;;;;;;55.40;32.80;;;;;;;;;;107721;1251;23016;-79
2023/04/16 00:37:24;;;;;;;56.50;29.20;;;;;;;;;;107752;1251;25336;-80
2023/04/16 00:39:51;;;;;;;53.90;27.80;;;;;;;;;;107722;1252;24086;-79
2023/04/16 00:42:17;;;;;;;48.80;25.80;;;;;;;;;;107760;1251;25410;-80
2023/04/16 00:44:43;;;;;;;50.80;25.90;;;;;;;;;;107730;1251;25397;-80
2023/04/16 00:47:10;;;;;;;50.90;27.30;;;;;;;;;;107756;1250;22541;-80
2023/04/16 00:49:36;;;;;;;50.30;27.30;;;;;;;;;;107660;1248;23783;-79
2023/04/16 00:52:02;;;;;;;44.60;23.30;;;;;;;;;;107731;1251;25390;-79
2023/04/16 00:54:29;;;;;;;50.10;28.20;;;;;;;;;;107691;1252;22547;-80
2023/04/16 00:56:57;;;;;;;50.70;30.30;;;;;;;;;;107635;1252;22967;-80
2023/04/16 00:59:23;;;;;;;47.70;23.50;;;;;;;;;;110827;1249;22382;-80
2023/04/16 01:01:49;;;;;;;53.50;24.60;;;;;;;;;;110846;1250;22244;-80
2023/04/16 01:04:16;;;;;;;43.50;24.20;;;;;;;;;;110915;1248;23171;-80
2023/04/16 01:06:42;;;;;;;53.90;29.60;;;;;;;;;;110992;1250;22231;-80
2023/04/16 01:09:09;;;;;;;52.30;26.20;;;;;;;;;;110894;1251;22256;-80
2023/04/16 01:11:36;;;;;;;51.60;23.40;;;;;;;;;;109891;1250;24225;-80
2023/04/16 01:14:03;;;;;;;49.20;24.10;;;;;;;;;;107746;1252;25182;-79
2023/04/16 01:16:29;;;;;;;45.60;21.80;;;;;;;;;;107706;1250;22531;-80
2023/04/16 01:18:56;;;;;;;47.50;21.50;;;;;;;;;;107707;1252;22571;-79
2023/04/16 01:21:22;;;;;;;48.40;23.20;;;;;;;;;;107787;1251;22619;-79
2023/04/16 01:23:48;;;;;;;41.50;22.40;;;;;;;;;;107768;1252;22542;-80
2023/04/16 01:26:15;;;;;;;44.70;24.00;;;;;;;;;;107757;1254;22533;-80
2023/04/16 01:28:41;;;;;;;46.90;24.60;;;;;;;;;;107766;1253;22540;-79
2023/04/16 01:31:07;;;;;;;47.30;24.40;;;;;;;;;;107764;1253;26455;-79
2023/04/16 01:33:34;;;;;;;41.30;21.80;;;;;;;;;;107800;1253;22557;-80
2023/04/16 01:36:00;;;;;;;41.80;24.10;;;;;;;;;;107740;1251;22523;-80
2023/04/16 01:38:26;;;;;;;45.00;25.30;;;;;;;;;;107766;1252;24219;-80
2023/04/16 01:40:59;;;;;;;48.00;24.50;;;;;;;;;;107767;1250;22686;-79
2023/04/16 01:43:25;;;;;;;45.60;23.40;;;;;;;;;;107780;1251;22560;-80
2023/04/16 01:45:53;;;;;;;41.50;21.20;;;;;;;;;;107729;1249;24277;-80
2023/04/16 01:48:19;;;;;;;43.40;20.60;;;;;;;;;;107737;1251;22612;-79
2023/04/16 01:50:46;;;;;;;42.40;20.20;;;;;;;;;;107744;1251;24235;-80
2023/04/16 01:53:12;;;;;;;44.10;22.50;;;;;;;;;;107681;1253;25383;-80
2023/04/16 01:55:38;;;;;;;41.10;21.60;;;;;;;;;;107736;1252;22537;-80
2023/04/16 01:58:06;;;;;;;44.50;23.30;;;;;;;;;;107693;1252;24190;-80
2023/04/16 02:00:33;;;;;;;42.50;22.90;;;;;;;;;;107561;1249;153764;-79
2023/04/16 02:02:59;;;;;;;31.20;17.60;;;;;;;;;;107771;1254;25424;-81
2023/04/16 02:05:26;;;;;;;40.60;21.90;;;;;;;;;;107746;1250;22514;-80
2023/04/16 02:07:52;;;;;;;31.90;17.10;;;;;;;;;;107737;1253;22531;-80
2023/04/16 02:10:18;;;;;;;30.70;18.90;;;;;;;;;;107771;1251;24396;-80
2023/04/16 02:12:45;;;;;;;38.10;20.00;;;;;;;;;;107787;1252;22538;-79
2023/04/16 02:15:11;;;;;;;33.90;19.50;;;;;;;;;;107733;1253;25484;-80
2023/04/16 02:17:37;;;;;;;42.50;23.10;;;;;;;;;;107769;1251;24192;-79
2023/04/16 02:20:06;;;;;;;47.30;24.70;;;;;;;;;;107809;1250;22528;-79
2023/04/16 02:22:33;;;;;;;47.10;21.40;;;;;;;;;;107721;1251;25487;-79
2023/04/16 02:24:59;;;;;;;47.00;21.40;;;;;;;;;;107845;1251;22535;-79
2023/04/16 02:27:25;;;;;;;42.90;22.20;;;;;;;;;;107819;1251;22632;-79
2023/04/16 02:29:52;;;;;;;46.60;20.20;;;;;;;;;;107800;1251;22558;-79
2023/04/16 02:32:18;;;;;;;48.90;22.40;;;;;;;;;;107800;1251;22564;-79
2023/04/16 02:34:44;;;;;;;34.90;19.50;;;;;;;;;;107721;1250;22536;-79
2023/04/16 02:37:11;;;;;;;42.70;23.90;;;;;;;;;;107755;1250;22561;-79
2023/04/16 02:39:37;;;;;;;33.20;17.00;;;;;;;;;;107769;1250;22559;-79
2023/04/16 02:42:03;;;;;;;40.50;19.40;;;;;;;;;;107791;1253;25372;-79
2023/04/16 02:44:30;;;;;;;36.20;18.10;;;;;;;;;;107777;1248;24316;-79
2023/04/16 02:46:56;;;;;;;35.80;17.90;;;;;;;;;;107753;1253;22531;-80
2023/04/16 02:49:22;;;;;;;36.40;20.60;;;;;;;;;;107829;1252;24239;-79
2023/04/16 02:51:49;;;;;;;34.50;17.90;;;;;;;;;;107962;1251;25400;-79
2023/04/16 02:54:15;;;;;;;44.70;17.60;;;;;;;;;;107785;1251;25364;-80
2023/04/16 02:56:42;;;;;;;37.00;18.50;;;;;;;;;;107715;1252;22552;-80
2023/04/16 02:59:08;;;;;;;39.10;19.90;;;;;;;;;;107693;1251;22657;-80
2023/04/16 03:01:34;;;;;;;34.10;18.50;;;;;;;;;;107738;1251;25275;-79
2023/04/16 03:04:00;;;;;;;42.10;21.10;;;;;;;;;;107789;1249;22554;-79
2023/04/16 03:06:27;;;;;;;38.40;18.60;;;;;;;;;;107796;1248;22551;-78
2023/04/16 03:08:53;;;;;;;43.10;19.90;;;;;;;;;;107713;1250;22623;-78
2023/04/16 03:11:20;;;;;;;33.00;16.70;;;;;;;;;;107837;1251;23114;-78
2023/04/16 03:13:46;;;;;;;27.70;15.50;;;;;;;;;;107741;1252;22534;-79
2023/04/16 03:16:13;;;;;;;30.30;17.30;;;;;;;;;;107792;1252;25146;-79
2023/04/16 03:18:39;;;;;;;31.50;16.50;;;;;;;;;;107759;1253;22526;-78
2023/04/16 03:21:05;;;;;;;29.60;17.80;;;;;;;;;;107759;1250;25303;-78
2023/04/16 03:23:32;;;;;;;31.20;17.30;;;;;;;;;;107796;1251;25291;-79
2023/04/16 03:25:58;;;;;;;22.60;12.70;;;;;;;;;;107752;1251;22527;-79
2023/04/16 03:28:25;;;;;;;29.00;14.20;;;;;;;;;;107769;1251;22542;-79
2023/04/16 03:30:52;;;;;;;20.80;12.20;;;;;;;;;;107742;1251;24215;-79
2023/04/16 03:33:18;;;;;;;23.50;12.40;;;;;;;;;;107793;1251;22560;-78
2023/04/16 03:35:45;;;;;;;27.00;12.90;;;;;;;;;;108214;1251;22425;-79
2023/04/16 03:38:11;;;;;;;25.80;13.70;;;;;;;;;;110951;1251;23257;-80
2023/04/16 03:40:37;;;;;;;28.20;15.60;;;;;;;;;;110922;1251;22319;-79
2023/04/16 03:43:04;;;;;;;32.00;13.70;;;;;;;;;;110997;1251;23196;-79
2023/04/16 03:45:30;;;;;;;27.30;15.20;;;;;;;;;;110938;1249;22067;-79
2023/04/16 03:47:56;;;;;;;27.50;15.10;;;;;;;;;;110900;1249;22240;-79
2023/04/16 03:50:23;;;;;;;27.40;12.80;;;;;;;;;;110910;1249;22476;-79
2023/04/16 03:52:49;;;;;;;36.30;19.60;;;;;;;;;;110977;1249;22526;-79
2023/04/16 03:55:15;;;;;;;27.60;14.50;;;;;;;;;;110887;1248;22299;-79
2023/04/16 03:57:42;;;;;;;23.70;13.10;;;;;;;;;;110946;1248;22414;-79
2023/04/16 04:00:08;;;;;;;24.70;13.80;;;;;;;;;;110934;1249;22592;-80
2023/04/16 04:02:35;;;;;;;29.90;13.30;;;;;;;;;;110979;1247;22823;-78
2023/04/16 04:05:01;;;;;;;22.00;12.00;;;;;;;;;;110988;1247;22613;-79
2023/04/16 04:07:28;;;;;;;19.60;11.70;;;;;;;;;;109271;1247;22616;-79
2023/04/16 04:09:55;;;;;;;16.70;10.70;;;;;;;;;;107907;1248;22521;-79
2023/04/16 04:12:21;;;;;;;22.50;14.00;;;;;;;;;;107900;1248;23713;-78
2023/04/16 04:14:47;;;;;;;24.10;12.90;;;;;;;;;;107977;1248;22541;-78
2023/04/16 04:17:14;;;;;;;25.00;14.90;;;;;;;;;;107977;1253;23326;-78
2023/04/16 04:19:40;;;;;;;25.60;13.60;;;;;;;;;;107928;1253;25493;-79
2023/04/16 04:22:07;;;;;;;22.60;12.80;;;;;;;;;;107895;1248;25262;-79
2023/04/16 04:24:33;;;;;;;21.30;13.50;;;;;;;;;;107919;1252;22515;-78
2023/04/16 04:27:00;;;;;;;31.50;17.10;;;;;;;;;;107909;1247;25304;-78
2023/04/16 04:29:27;;;;;;;32.50;18.20;;;;;;;;;;107803;1251;24247;-78
2023/04/16 04:31:54;;;;;;;28.50;16.10;;;;;;;;;;107781;1249;22661;-78
2023/04/16 04:34:20;;;;;;;25.10;14.70;;;;;;;;;;107652;1251;25403;-78
2023/04/16 04:36:46;;;;;;;25.40;14.00;;;;;;;;;;107793;1250;25401;-78
2023/04/16 04:39:13;;;;;;;26.90;15.00;;;;;;;;;;107779;1249;22611;-81
2023/04/16 04:41:39;;;;;;;27.70;16.70;;;;;;;;;;108342;1251;22891;-79
2023/04/16 04:44:05;;;;;;;34.60;17.60;;;;;;;;;;107785;1252;22585;-78
2023/04/16 04:46:32;;;;;;;25.00;13.30;;;;;;;;;;107757;1252;27524;-78
2023/04/16 04:48:58;;;;;;;24.80;13.50;;;;;;;;;;107650;1249;24292;-79
2023/04/16 04:51:25;;;;;;;26.20;13.00;;;;;;;;;;107669;1250;25366;-79
2023/04/16 04:53:52;;;;;;;25.90;14.70;;;;;;;;;;107667;1249;22644;-78
2023/04/16 04:56:18;;;;;;;23.60;13.30;;;;;;;;;;107747;1250;22563;-79
2023/04/16 04:58:44;;;;;;;23.80;13.50;;;;;;;;;;107761;1252;22600;-78
2023/04/16 05:01:11;;;;;;;24.10;13.50;;;;;;;;;;107797;1248;22512;-79
2023/04/16 05:03:37;;;;;;;32.40;15.50;;;;;;;;;;107930;1247;25356;-79
2023/04/16 05:06:04;;;;;;;31.70;16.40;;;;;;;;;;107857;1248;22511;-78
2023/04/16 05:08:30;;;;;;;33.20;20.60;;;;;;;;;;107901;1250;24228;-79
2023/04/16 05:10:57;;;;;;;29.10;17.70;;;;;;;;;;107834;1248;22654;-78
2023/04/16 05:13:23;;;;;;;24.30;14.40;;;;;;;;;;107887;1247;25361;-80
2023/04/16 05:15:49;;;;;;;20.40;12.00;;;;;;;;;;107974;1247;23764;-81
2023/04/16 05:18:16;;;;;;;23.30;13.70;;;;;;;;;;107915;1247;24188;-79
2023/04/16 05:20:42;;;;;;;25.70;14.80;;;;;;;;;;107936;1248;22552;-80
2023/04/16 05:23:08;;;;;;;25.80;15.60;;;;;;;;;;108486;1247;22586;-81
2023/04/16 05:25:35;;;;;;;30.10;18.50;;;;;;;;;;108522;1247;22607;-81
2023/04/16 05:28:01;;;;;;;29.80;18.80;;;;;;;;;;108440;1250;22539;-80
2023/04/16 05:30:27;;;;;;;28.00;17.20;;;;;;;;;;108384;1249;24337;-81
2023/04/16 05:32:53;;;;;;;34.40;21.70;;;;;;;;;;108413;1249;25323;-80
2023/04/16 05:35:20;;;;;;;50.50;31.70;;;;;;;;;;108491;1250;22538;-81
2023/04/16 05:37:46;;;;;;;47.20;27.70;;;;;;;;;;108414;1249;26484;-80
2023/04/16 05:40:12;;;;;;;43.10;26.70;;;;;;;;;;108393;1250;23929;-79
2023/04/16 05:42:39;;;;;;;46.10;27.30;;;;;;;;;;108387;1250;25366;-79
2023/04/16 05:45:05;;;;;;;42.40;24.90;;;;;;;;;;108421;1248;22552;-80
2023/04/16 05:47:32;;;;;;;36.40;22.40;;;;;;;;;;108447;1249;23003;-80
2023/04/16 05:49:58;;;;;;;28.80;17.50;;;;;;;;;;108373;1249;22560;-79
2023/04/16 05:52:25;;;;;;;32.00;17.00;;;;;;;;;;108450;1249;23221;-80
2023/04/16 05:54:51;;;;;;;31.50;18.40;;;;;;;;;;108463;1248;22812;-80
2023/04/16 05:57:17;;;;;;;27.90;18.70;;;;;;;;;;108367;1249;22537;-80
2023/04/16 05:59:44;;;;;;;29.90;18.40;;;;;;;;;;108257;1249;22564;-80
2023/04/16 06:02:10;;;;;;;29.10;17.40;;;;;;;;;;108379;1249;22608;-80
2023/04/16 06:04:36;;;;;;;26.60;14.90;;;;;;;;;;108399;1252;25242;-80
2023/04/16 06:07:03;;;;;;;28.30;17.00;;;;;;;;;;108395;1250;22537;-81
2023/04/16 06:09:29;;;;;;;36.90;22.30;;;;;;;;;;108426;1250;22654;-79
2023/04/16 06:11:56;;;;;;;32.80;21.10;;;;;;;;;;108412;1250;23555;-81
2023/04/16 06:14:23;;;;;;;22.90;15.00;;;;;;;;;;108416;1248;22785;-81
2023/04/16 06:16:49;;;;;;;21.30;14.20;;;;;;;;;;108431;1249;25390;-80
2023/04/16 06:19:16;;;;;;;29.30;18.20;;;;;;;;;;108411;1250;24337;-81
2023/04/16 06:21:42;;;;;;;21.90;14.50;;;;;;;;;;108425;1249;23129;-81
2023/04/16 06:24:08;;;;;;;23.70;15.40;;;;;;;;;;108366;1248;22558;-81
2023/04/16 06:26:35;;;;;;;18.40;12.80;;;;;;;;;;108445;1249;22784;-80
2023/04/16 06:29:01;;;;;;;22.20;12.40;;;;;;;;;;108363;1250;22525;-80
2023/04/16 06:31:28;;;;;;;18.40;12.70;;;;;;;;;;108461;1249;25380;-80
2023/04/16 06:33:54;;;;;;;20.20;11.80;;;;;;;;;;108349;1248;22936;-81
2023/04/16 06:36:21;;;;;;;20.70;13.30;;;;;;;;;;108399;1250;23034;-81
2023/04/16 06:38:47;;;;;;;18.20;12.50;;;;;;;;;;108379;1249;26469;-81
2023/04/16 06:41:14;;;;;;;16.90;11.20;;;;;;;;;;108331;1250;22517;-81
2023/04/16 06:43:40;;;;;;;17.20;11.40;;;;;;;;;;108357;1252;22559;-80
2023/04/16 06:46:06;;;;;;;24.10;12.50;;;;;;;;;;108420;1248;22562;-80
2023/04/16 06:48:33;;;;;;;20.50;10.80;;;;;;;;;;108353;1249;22622;-81
2023/04/16 06:50:59;;;;;;;19.30;10.80;;;;;;;;;;108347;1249;26394;-80
2023/04/16 06:53:25;;;;;;;24.30;15.10;;;;;;;;;;108370;1250;22557;-80
2023/04/16 06:55:52;;;;;;;37.70;23.60;;;;;;;;;;108338;1249;22546;-81
2023/04/16 06:58:18;;;;;;;16.20;10.80;;;;;;;;;;108295;1250;22578;-81
2023/04/16 07:00:45;;;;;;;13.80;9.70;;;;;;;;;;108611;1247;24761;-78
2023/04/16 07:03:11;;;;;;;13.00;9.60;;;;;;;;;;109151;1250;25287;-78
2023/04/16 07:05:37;;;;;;;15.80;9.50;;;;;;;;;;107936;1247;25361;-79
2023/04/16 07:08:04;;;;;;;11.70;9.10;;;;;;;;;;107859;1247;24215;-79
2023/04/16 07:10:30;;;;;;;12.00;8.50;;;;;;;;;;107897;1247;24211;-80
2023/04/16 07:12:57;;;;;;;11.90;8.50;;;;;;;;;;107910;1253;22534;-79
2023/04/16 07:15:23;;;;;;;12.70;7.90;;;;;;;;;;107871;1247;25384;-79
2023/04/16 07:17:50;;;;;;;9.20;7.40;;;;;;;;;;107781;1250;25461;-80
2023/04/16 07:20:16;;;;;;;10.10;6.50;;;;;;;;;;107723;1249;22521;-79
2023/04/16 07:22:42;;;;;;;8.80;7.30;;;;;;;;;;107753;1249;24260;-78
2023/04/16 07:25:09;;;;;;;13.60;9.80;;;;;;;;;;107831;1249;25359;-79
2023/04/16 07:27:35;;;;;;;7.60;6.00;;;;;;;;;;107815;1248;25900;-79
2023/04/16 07:30:02;;;;;;;6.50;4.90;;;;;;;;;;107741;1248;22560;-79
2023/04/16 07:32:29;;;;;;;7.90;4.10;;;;;;;;;;107845;1250;22822;-79
2023/04/16 07:34:55;;;;;;;5.40;4.00;;;;;;;;;;107949;1250;22622;-80
2023/04/16 07:37:22;;;;;;;6.40;5.30;;;;;;;;;;107908;1248;25160;-79
2023/04/16 07:39:48;;;;;;;5.70;3.10;;;;;;;;;;107797;1248;22989;-79
2023/04/16 07:42:15;;;;;;;4.30;3.50;;;;;;;;;;107840;1249;25250;-80
2023/04/16 07:44:41;;;;;;;5.70;4.00;;;;;;;;;;107836;1250;23228;-80
2023/04/16 07:47:07;;;;;;;41.40;33.30;;;;;;;;;;107784;1250;23678;-79
2023/04/16 07:49:34;;;;;;;4.70;3.30;;;;;;;;;;107838;1249;25221;-80
2023/04/16 07:52:00;;;;;;;3.40;2.90;;;;;;;;;;107756;1249;25394;-79
2023/04/16 07:54:27;;;;;;;5.10;3.00;;;;;;;;;;107784;1249;22527;-79
2023/04/16 07:56:53;;;;;;;11.80;6.60;;;;;;;;;;107646;1253;25306;-79
2023/04/16 07:59:20;;;;;;;8.60;6.90;;;;;;;;;;107679;1250;22528;-80
2023/04/16 08:01:46;;;;;;;4.90;3.60;;;;;;;;;;107771;1250;22629;-80
2023/04/16 08:04:13;;;;;;;5.20;3.50;;;;;;;;;;107788;1249;22538;-79
2023/04/16 08:06:39;;;;;;;4.00;2.50;;;;;;;;;;108456;1248;24218;-80
2023/04/16 08:09:06;;;;;;;2.90;2.10;;;;;;;;;;108396;1250;23248;-80
2023/04/16 08:11:32;;;;;;;3.60;1.90;;;;;;;;;;108455;1250;23190;-80
2023/04/16 08:13:59;;;;;;;4.30;2.40;;;;;;;;;;108410;1249;22525;-80
2023/04/16 08:16:26;;;;;;;2.90;2.10;;;;;;;;;;108385;1249;22661;-80
2023/04/16 08:18:52;;;;;;;3.10;1.90;;;;;;;;;;108408;1249;22609;-80
2023/04/16 08:21:18;;;;;;;3.10;2.10;;;;;;;;;;108414;1249;22849;-80
2023/04/16 08:23:45;;;;;;;14.20;2.60;;;;;;;;;;108426;1250;25236;-80
2023/04/16 08:26:11;;;;;;;3.30;1.80;;;;;;;;;;108413;1252;25384;-81
2023/04/16 08:28:37;;;;;;;6.30;2.10;;;;;;;;;;108419;1250;22628;-80
2023/04/16 08:31:04;;;;;;;4.00;1.90;;;;;;;;;;108454;1252;22620;-80
2023/04/16 08:33:30;;;;;;;3.10;1.90;;;;;;;;;;108436;1252;22544;-80
2023/04/16 08:35:57;;;;;;;2.50;2.00;;;;;;;;;;108331;1250;23718;-80
2023/04/16 08:38:23;;;;;;;2.90;2.00;;;;;;;;;;108403;1252;22561;-81
2023/04/16 08:40:50;;;;;;;2.20;1.60;;;;;;;;;;108404;1250;24265;-80
2023/04/16 08:43:17;;;;;;;2.60;1.80;;;;;;;;;;108291;1250;26394;-80
2023/04/16 08:45:43;;;;;;;2.80;1.60;;;;;;;;;;108238;1248;22525;-80
2023/04/16 08:48:10;;;;;;;3.50;2.60;;;;;;;;;;108412;1249;22522;-80
2023/04/16 08:50:36;;;;;;;2.60;1.70;;;;;;;;;;108435;1248;22524;-80
2023/04/16 08:53:05;;;;;;;4.40;3.10;;;;;;;;;;108417;1249;22645;-80
2023/04/16 08:55:31;;;;;;;2.70;2.20;;;;;;;;;;108397;1249;22553;-80
2023/04/16 08:57:58;;;;;;;3.00;2.50;;;;;;;;;;108491;1250;22694;-80
2023/04/16 09:00:25;;;;;;;3.30;2.80;;;;;;;;;;108336;1250;24234;-80
2023/04/16 09:02:51;;;;;;;3.00;2.40;;;;;;;;;;108509;1247;22522;-80
2023/04/16 09:05:20;;;;;;;4.50;3.40;;;;;;;;;;108467;1247;25214;-80
2023/04/16 09:07:47;;;;;;;3.40;2.40;;;;;;;;;;108449;1247;22531;-80
2023/04/16 09:10:13;;;;;;;4.10;2.70;;;;;;;;;;108480;1247;23135;-80
2023/04/16 09:12:40;;;;;;;8.50;2.80;;;;;;;;;;108302;1247;23185;-80
2023/04/16 09:15:07;;;;;;;4.30;2.50;;;;;;;;;;108485;1248;22528;-80
2023/04/16 09:17:33;;;;;;;3.90;2.50;;;;;;;;;;108456;1247;22618;-80
2023/04/16 09:20:00;;;;;;;5.00;3.30;;;;;;;;;;108490;1247;23921;-81
2023/04/16 09:22:26;;;;;;;8.70;3.20;;;;;;;;;;108530;1248;25271;-80
2023/04/16 09:24:52;;;;;;;4.90;3.50;;;;;;;;;;108469;1247;22537;-80
2023/04/16 09:27:19;;;;;;;4.80;2.80;;;;;;;;;;108454;1247;22675;-80
2023/04/16 09:29:45;;;;;;;3.40;2.70;;;;;;;;;;108396;1249;22571;-80
2023/04/16 09:32:12;;;;;;;5.30;3.50;;;;;;;;;;108402;1250;22596;-81
2023/04/16 09:34:54;;;;;;;3.70;3.30;;;;;;;;;;108402;1248;24398;-80
2023/04/16 09:37:21;;;;;;;4.70;3.30;;;;;;;;;;108372;1252;23254;-80
2023/04/16 09:40:00;;;;;;;3.90;2.80;;;;;;;;;;108324;1250;22544;-80
2023/04/16 09:42:30;;;;;;;3.40;2.70;;;;;;;;;;108828;1249;22536;-81
2023/04/16 09:44:57;;;;;;;4.20;2.40;;;;;;;;;;108414;1250;25384;-80
2023/04/16 09:47:24;;;;;;;3.60;2.90;;;;;;;;;;108366;1249;22523;-81
2023/04/16 09:49:51;;;;;;;3.90;2.70;;;;;;;;;;108353;1250;23236;-80
2023/04/16 09:52:18;;;;;;;3.40;2.50;;;;;;;;;;108405;1248;22518;-80
2023/04/16 09:54:48;;;;;;;4.00;2.50;;;;;;;;;;108386;1249;22634;-80
2023/04/16 09:57:24;;;;;;;5.30;2.40;;;;;;;;;;108350;1249;22671;-81
2023/04/16 09:59:56;;;;;;;3.70;2.30;;;;;;;;;;108284;1249;24398;-79
2023/04/16 10:02:26;;;;;;;4.20;2.90;;;;;;;;;;108051;1249;61212;-80
2023/04/16 10:04:52;;;;;;;3.20;2.20;;;;;;;;;;107471;1249;61254;-79
2023/04/16 10:07:19;;;;;;;4.20;3.30;;;;;;;;;;106975;1251;61382;-80
2023/04/16 10:09:47;;;;;;;4.00;2.80;;;;;;;;;;106923;1250;61343;-80
2023/04/16 10:12:14;;;;;;;4.80;3.10;;;;;;;;;;107656;1248;61310;-79
2023/04/16 10:14:40;;;;;;;3.50;2.40;;;;;;;;;;106997;1250;59499;-79
2023/04/16 10:17:07;;;;;;;4.90;3.60;;;;;;;;;;106942;1252;61263;-80
2023/04/16 10:19:34;;;;;;;5.90;3.40;;;;;;;;;;107478;1249;59189;-79
2023/04/16 10:22:00;;;;;;;6.00;3.00;;;;;;;;;;107851;1252;25191;-81
2023/04/16 10:24:27;;;;;;;3.00;2.10;;;;;;;;;;107806;1250;22561;-79
2023/04/16 10:26:54;;;;;;;3.70;2.30;;;;;;;;;;107837;1250;22551;-79
2023/04/16 10:29:20;;;;;;;3.70;2.20;;;;;;;;;;107772;1249;22518;-79
2023/04/16 10:31:47;;;;;;;3.70;2.20;;;;;;;;;;107907;1248;22998;-79
2023/04/16 10:34:14;;;;;;;2.80;2.30;;;;;;;;;;107809;1250;25449;-79
2023/04/16 10:36:40;;;;;;;6.60;2.60;;;;;;;;;;108428;1249;22529;-79
2023/04/16 10:39:10;;;;;;;5.20;2.40;;;;;;;;;;107745;1248;24222;-79
2023/04/16 10:41:37;;;;;;;3.50;2.20;;;;;;;;;;107802;1251;22536;-80
2023/04/16 10:44:10;;;;;;;3.40;2.40;;;;;;;;;;107791;1249;24367;-80
2023/04/16 10:46:40;;;;;;;4.20;2.20;;;;;;;;;;107739;1251;22987;-79
2023/04/16 10:49:18;;;;;;;4.30;2.70;;;;;;;;;;107770;1249;22605;-79
2023/04/16 10:51:45;;;;;;;;;;;;;;;;;;107769;1250;22677;-80
2023/04/16 10:54:13;;;;;;;3.80;2.80;;;;;;;;;;107775;1248;22764;-80
2023/04/16 10:56:39;;;;;;;4.00;2.40;;;;;;;;;;107823;1250;22527;-80
2023/04/16 10:59:06;;;;;;;2.80;2.50;;;;;;;;;;107808;1249;22540;-80
2023/04/16 11:01:33;;;;;;;5.50;3.20;;;;;;;;;;107943;1248;22515;-79
2023/04/16 11:04:02;;;;;;;3.40;2.60;;;;;;;;;;107914;1251;22632;-79
2023/04/16 11:06:30;;;;;;;3.00;1.80;;;;;;;;;;107937;1252;22590;-80
2023/04/16 11:08:57;;;;;;;4.70;2.30;;;;;;;;;;107903;1247;22548;-79
2023/04/16 11:11:23;;;;;;;3.60;2.30;;;;;;;;;;107812;1248;24220;-79
2023/04/16 11:13:52;;;;;;;4.70;2.40;;;;;;;;;;107717;1249;22522;-79
2023/04/16 11:16:18;;;;;;;5.10;2.40;;;;;;;;;;107786;1249;24201;-80
2023/04/16 11:18:44;;;;;;;4.60;2.90;;;;;;;;;;107900;1252;22556;-80
2023/04/16 11:21:11;;;;;;;6.90;2.20;;;;;;;;;;107790;1250;22550;-79
2023/04/16 11:23:47;;;;;;;2.80;1.80;;;;;;;;;;107897;1249;22553;-80
2023/04/16 11:26:21;;;;;;;2.60;1.80;;;;;;;;;;107923;1249;24301;-80
2023/04/16 11:28:48;;;;;;;4.90;2.50;;;;;;;;;;107916;1252;24773;-80
2023/04/16 11:31:14;;;;;;;2.50;1.70;;;;;;;;;;108048;1253;22514;-79
2023/04/16 11:33:41;;;;;;;2.80;1.60;;;;;;;;;;108114;1249;24167;-81
2023/04/16 11:36:07;;;;;;;2.50;1.90;;;;;;;;;;108162;1248;24373;-80
2023/04/16 11:38:35;;;;;;;3.00;2.00;;;;;;;;;;108042;1250;25691;-80
2023/04/16 11:41:01;;;;;;;2.80;1.80;;;;;;;;;;107720;1252;23096;-79
2023/04/16 11:43:27;;;;;;;3.10;2.40;;;;;;;;;;107797;1249;25535;-79
2023/04/16 11:46:01;;;;;;;3.50;2.70;;;;;;;;;;107792;1250;25388;-77
2023/04/16 11:48:49;;;;;;;3.70;2.50;;;;;;;;;;107647;1250;25208;-78
2023/04/16 11:51:16;;;;;;;;;;;;;;;;;;107824;1249;22504;-79
2023/04/16 11:53:49;;;;;;;3.00;2.50;;;;;;;;;;107751;1250;24282;-79
2023/04/16 11:56:24;;;;;;;3.50;2.90;;;;;;;;;;107686;1249;25432;-80
2023/04/16 11:59:09;;;;;;;4.50;3.40;;;;;;;;;;107657;1252;22521;-79
2023/04/16 12:01:36;;;;;;;3.80;2.80;;;;;;;;;;107716;1249;24257;-79
2023/04/16 12:04:02;;;;;;;5.60;3.50;;;;;;;;;;107733;1249;22547;-79
2023/04/16 12:06:28;;;;;;;4.00;2.80;;;;;;;;;;107751;1250;25476;-79
2023/04/16 12:08:55;;;;;;;6.10;3.20;;;;;;;;;;107750;1248;22872;-80
2023/04/16 12:11:36;;;;;;;3.70;2.90;;;;;;;;;;107808;1249;25376;-80
2023/04/16 12:14:05;;;;;;;5.30;3.30;;;;;;;;;;107741;1250;24223;-79
2023/04/16 12:16:32;;;;;;;5.70;3.00;;;;;;;;;;107705;1252;22602;-78
2023/04/16 12:19:00;;;;;;;4.40;3.20;;;;;;;;;;107786;1252;22530;-79
2023/04/16 12:21:42;;;;;;;4.20;2.70;;;;;;;;;;107741;1252;22550;-79
2023/04/16 12:24:09;;;;;;;4.40;3.00;;;;;;;;;;107768;1252;25276;-79
2023/04/16 12:26:39;;;;;;;5.70;3.50;;;;;;;;;;107776;1248;23196;-79
2023/04/16 12:29:15;;;;;;;4.40;2.50;;;;;;;;;;108364;1250;22615;-79
2023/04/16 12:31:42;;;;;;;4.50;2.50;;;;;;;;;;108316;1248;22548;-80
2023/04/16 12:34:09;;;;;;;3.10;2.30;;;;;;;;;;108363;1250;22524;-79
2023/04/16 12:36:36;;;;;;;4.90;2.60;;;;;;;;;;108352;1252;22521;-80
2023/04/16 12:39:02;;;;;;;4.80;2.80;;;;;;;;;;108369;1249;22560;-79
2023/04/16 12:41:29;;;;;;;5.90;3.20;;;;;;;;;;108359;1249;23228;-80
2023/04/16 12:44:11;;;;;;;4.40;3.30;;;;;;;;;;108426;1249;22572;-79
2023/04/16 12:46:38;;;;;;;4.50;2.90;;;;;;;;;;108334;1252;22997;-79
2023/04/16 12:49:04;;;;;;;4.60;3.10;;;;;;;;;;108301;1250;23229;-80
2023/04/16 12:51:31;;;;;;;3.70;2.50;;;;;;;;;;108520;1250;22665;-79
2023/04/16 12:53:58;;;;;;;4.20;3.20;;;;;;;;;;107888;1250;22517;-79
2023/04/16 12:56:25;;;;;;;5.00;3.50;;;;;;;;;;107707;1250;25225;-79
2023/04/16 12:58:51;;;;;;;7.30;4.00;;;;;;;;;;107641;1249;25495;-79
2023/04/16 13:01:18;;;;;;;10.50;7.90;;;;;;;;;;107708;1250;25487;-79
2023/04/16 13:03:44;;;;;;;8.20;6.40;;;;;;;;;;107791;1248;22528;-79
2023/04/16 13:06:11;;;;;;;12.60;9.70;;;;;;;;;;107703;1249;22635;-79
2023/04/16 13:08:38;;;;;;;4.60;3.30;;;;;;;;;;107740;1250;22605;-80
2023/04/16 13:11:05;;;;;;;5.30;2.80;;;;;;;;;;107726;1250;24254;-79
2023/04/16 13:13:31;;;;;;;4.40;3.20;;;;;;;;;;107729;1249;25294;-79
2023/04/16 13:15:58;;;;;;;5.80;4.80;;;;;;;;;;107709;1250;22527;-79
2023/04/16 13:18:25;;;;;;;3.00;2.20;;;;;;;;;;107767;1249;25333;-80
2023/04/16 13:20:52;;;;;;;4.40;2.60;;;;;;;;;;107847;1250;25266;-79
2023/04/16 13:23:18;;;;;;;4.10;2.70;;;;;;;;;;107749;1250;22763;-80
2023/04/16 13:25:45;;;;;;;4.10;2.40;;;;;;;;;;107768;1251;22550;-79
2023/04/16 13:28:11;;;;;;;2.60;1.80;;;;;;;;;;107754;1249;22617;-80
2023/04/16 13:30:37;;;;;;;3.40;2.20;;;;;;;;;;107734;1250;24210;-79
2023/04/16 13:33:04;;;;;;;4.10;2.60;;;;;;;;;;107700;1252;25329;-79
2023/04/16 13:35:30;;;;;;;2.40;1.90;;;;;;;;;;107744;1250;22518;-79
2023/04/16 13:37:57;;;;;;;5.20;3.50;;;;;;;;;;107872;1249;23745;-79
2023/04/16 13:40:23;;;;;;;2.10;1.80;;;;;;;;;;107698;1249;23231;-79
2023/04/16 13:42:50;;;;;;;3.10;2.30;;;;;;;;;;107721;1250;22566;-78
2023/04/16 13:45:16;;;;;;;4.30;3.20;;;;;;;;;;107678;1250;22521;-78
2023/04/16 13:47:42;;;;;;;3.60;2.40;;;;;;;;;;108986;1249;22518;-78
2023/04/16 13:50:09;;;;;;;8.00;4.60;;;;;;;;;;107693;1250;24170;-79
2023/04/16 13:52:35;;;;;;;4.80;2.90;;;;;;;;;;107916;1248;25353;-79
2023/04/16 13:55:02;;;;;;;3.80;2.70;;;;;;;;;;107673;1249;22571;-79
2023/04/16 13:57:28;;;;;;;2.30;1.70;;;;;;;;;;107715;1250;22521;-79
2023/04/16 13:59:55;;;;;;;3.30;2.10;;;;;;;;;;107561;1250;167849;-78
2023/04/16 14:02:21;;;;;;;2.80;1.80;;;;;;;;;;107874;1248;22519;-80
2023/04/16 14:04:48;;;;;;;4.50;1.60;;;;;;;;;;107936;1247;22639;-78
2023/04/16 14:07:15;;;;;;;4.60;3.70;;;;;;;;;;107888;1247;25348;-78
2023/04/16 14:09:41;;;;;;;7.50;5.00;;;;;;;;;;107952;1248;25337;-79
2023/04/16 14:12:07;;;;;;;4.50;4.10;;;;;;;;;;107921;1247;22564;-79
2023/04/16 14:14:34;;;;;;;2.20;1.40;;;;;;;;;;107905;1247;24193;-79